Nrc Columbia — WDA8288 — position and weather

sailwx.info

Track history (hours):
 
Tides and Currents Weather Stations Pressure Air Temp Water Temp Dewpoint Dewpoint Depression Visibility Wind Speed Wind Dir Waves Ship Positions

Nrc Columbia

Owner: National Response Corporation, HOUSTON, TX. More information available from US FCC via Universal Licensing System and Coast Guard Vessel Documentation Center.

Last reported at 2015-Jun-30 01:20 UTC. Time now 2015-Jun-30 03:31 UTC.
Position N 48°50' W 122°43'.

Length 35 m.

Type: Pollution control. MMSI: 366710170.

Date/timePositionNaut miles runAvg speedWind from/ knotsBaromVisibWave heightAir tempDewpointWater temp
2015-Jun-30 01:20N 48°50' W 122°43'0 0.0
2015-Jun-29 23:17N 48°50' W 122°43'0 0.0
2015-Jun-29 22:11N 48°50' W 122°43'0 0.0
2015-Jun-29 19:32N 48°50' W 122°43'0 0.0
2015-Jun-29 16:32N 48°50' W 122°43'0 0.0
2015-Jun-29 15:32N 48°50' W 122°43'0 0.0
2015-Jun-29 14:26N 48°50' W 122°43'0 0.0
2015-Jun-29 12:26N 48°50' W 122°43'0 0.0
2015-Jun-29 11:32N 48°50' W 122°43'0 0.0
2015-Jun-29 08:32N 48°50' W 122°43'0 0.0
2015-Jun-29 02:26N 48°50' W 122°43'0 0.0
2015-Jun-28 23:26N 48°50' W 122°43'0 0.0
2015-Jun-28 22:20N 48°50' W 122°43'0 0.0
2015-Jun-28 21:32N 48°50' W 122°43'0 0.0
2015-Jun-28 15:14N 48°50' W 122°43'0 0.1
2015-Jun-28 14:32N 48°50' W 122°43'0 0.0
2015-Jun-28 13:26N 48°50' W 122°43'0 0.0
2015-Jun-28 11:32N 48°50' W 122°43'0 0.0
2015-Jun-28 08:17N 48°50' W 122°43'0 0.0
2015-Jun-28 07:29N 48°50' W 122°43'0 0.0
2015-Jun-28 06:05N 48°50' W 122°43'0 0.0
2015-Jun-28 05:17N 48°50' W 122°43'0 0.1
2015-Jun-28 04:32N 48°50' W 122°43'0 0.0
2015-Jun-28 03:26N 48°50' W 122°43'0 0.0
2015-Jun-28 02:14N 48°50' W 122°43'0 0.0
2015-Jun-28 00:32N 48°50' W 122°43'0 0.0
2015-Jun-27 22:32N 48°50' W 122°43'0 0.0
2015-Jun-27 19:14N 48°50' W 122°43'0 0.0
2015-Jun-27 17:29N 48°50' W 122°43'0 0.0
2015-Jun-27 16:26N 48°50' W 122°43'0 0.0
2015-Jun-27 15:32N 48°50' W 122°43'0 0.0
2015-Jun-27 11:14N 48°50' W 122°43'0 0.0
2015-Jun-27 10:32N 48°50' W 122°43'0 0.0
2015-Jun-27 08:32N 48°50' W 122°43'0 0.0
2015-Jun-27 07:32N 48°50' W 122°43'0 0.0
2015-Jun-27 06:26N 48°50' W 122°43'0 0.0
2015-Jun-27 05:29N 48°50' W 122°43'0 0.0
2015-Jun-27 04:32N 48°50' W 122°43'0 0.0
2015-Jun-27 03:29N 48°50' W 122°43'0 0.0
2015-Jun-27 02:32N 48°50' W 122°43'0 0.0
2015-Jun-27 01:34N 48°50' W 122°43'2 2.1
2015-Jun-27 00:33N 48°48' W 122°44'8 7.9
2015-Jun-26 23:33N 48°41' W 122°37'5 4.9
2015-Jun-26 22:33N 48°43' W 122°31'0 0.0
2015-Jun-26 21:24N 48°43' W 122°31'0 0.0
2015-Jun-26 20:33N 48°43' W 122°31'0 0.0
2015-Jun-26 19:33N 48°43' W 122°31'0 0.0
2015-Jun-26 18:24N 48°43' W 122°31'0 0.0
2015-Jun-26 17:15N 48°43' W 122°31'0 0.0
2015-Jun-26 16:33N 48°43' W 122°31'5 4.9
2015-Jun-26 15:33N 48°41' W 122°38'9 8.7
2015-Jun-26 14:29N 48°50' W 122°43'0 0.3
2015-Jun-26 13:33N 48°50' W 122°43'0 0.0
2015-Jun-26 12:32N 48°50' W 122°43'0 0.0
2015-Jun-26 11:33N 48°50' W 122°43'0 0.0
2015-Jun-26 10:28N 48°50' W 122°43'0 0.0
2015-Jun-26 09:33N 48°50' W 122°43'0 0.0
2015-Jun-26 08:33N 48°50' W 122°43'0 0.0
2015-Jun-26 07:33N 48°50' W 122°43'0 0.0
2015-Jun-26 06:33N 48°50' W 122°43'0 0.0
2015-Jun-26 05:33N 48°50' W 122°43'0 0.0
2015-Jun-26 04:32N 48°50' W 122°43'0 0.0
2015-Jun-26 03:32N 48°50' W 122°43'0 0.0
2015-Jun-26 02:33N 48°50' W 122°43'0 0.0
2015-Jun-26 01:25N 48°50' W 122°43'0 0.0
2015-Jun-26 00:30N 48°50' W 122°43'0 0.0
2015-Jun-25 23:33N 48°50' W 122°43'0 0.0
2015-Jun-25 22:33N 48°50' W 122°43'0 0.0
2015-Jun-25 21:33N 48°50' W 122°43'0 0.0
2015-Jun-25 20:33N 48°50' W 122°43'0 0.0
2015-Jun-25 19:31N 48°50' W 122°43'0 0.0
2015-Jun-25 18:33N 48°50' W 122°43'0 0.0
2015-Jun-25 17:33N 48°50' W 122°43'0 0.0
2015-Jun-25 16:33N 48°50' W 122°43'0 0.0
2015-Jun-25 15:33N 48°50' W 122°43'0 0.0
2015-Jun-25 14:33N 48°50' W 122°43'0 0.0
2015-Jun-25 13:33N 48°50' W 122°43'0 0.0
2015-Jun-25 12:32N 48°50' W 122°43'0 0.0
2015-Jun-25 11:33N 48°50' W 122°43'0 0.0
2015-Jun-25 10:33N 48°50' W 122°43'0 0.0
2015-Jun-25 09:33N 48°50' W 122°43'0 0.0
2015-Jun-25 08:33N 48°50' W 122°43'0 0.0
2015-Jun-25 07:33N 48°50' W 122°43'0 0.0
2015-Jun-25 06:32N 48°50' W 122°43'0 0.0
2015-Jun-25 05:33N 48°50' W 122°43'0 0.0
2015-Jun-25 04:33N 48°50' W 122°43'0 0.0
2015-Jun-25 03:33N 48°50' W 122°43'0 0.0
2015-Jun-25 02:33N 48°50' W 122°43'0 0.0
2015-Jun-25 01:33N 48°50' W 122°43'0 0.0
2015-Jun-25 00:32N 48°50' W 122°43'0 0.0
2015-Jun-24 23:27N 48°50' W 122°43'0 0.0
2015-Jun-24 22:33N 48°50' W 122°43'0 0.0
2015-Jun-24 21:33N 48°50' W 122°43'0 0.4
2015-Jun-24 20:32N 48°49' W 122°43'0 0.1
2015-Jun-24 19:33N 48°50' W 122°43'0 0.0
2015-Jun-24 18:31N 48°50' W 122°43'0 0.1
2015-Jun-24 17:33N 48°50' W 122°43'0 0.1
2015-Jun-24 15:27N 48°50' W 122°43'0 0.0
2015-Jun-24 14:27N 48°50' W 122°43'0 0.0
2015-Jun-24 13:33N 48°50' W 122°43'0 0.0
2015-Jun-24 12:24N 48°50' W 122°43'0 0.0
2015-Jun-24 11:18N 48°50' W 122°43'0 0.0
2015-Jun-24 10:30N 48°50' W 122°43'0 0.0
2015-Jun-24 09:27N 48°50' W 122°43'0 0.0
2015-Jun-24 08:30N 48°50' W 122°43'0 0.0
2015-Jun-24 07:33N 48°50' W 122°43'0 0.0
2015-Jun-24 06:33N 48°50' W 122°43'0 0.0
2015-Jun-24 05:21N 48°50' W 122°43'0 0.0
2015-Jun-24 04:21N 48°50' W 122°43'0 0.0
2015-Jun-24 03:33N 48°50' W 122°43'0 0.0
2015-Jun-24 02:09N 48°50' W 122°43'0 0.0
2015-Jun-24 01:33N 48°50' W 122°43'0 0.0
2015-Jun-24 00:33N 48°50' W 122°43'0 0.0
2015-Jun-23 22:33N 48°50' W 122°43'0 0.0
2015-Jun-23 21:06N 48°50' W 122°43'0 0.0
2015-Jun-23 20:06N 48°50' W 122°43'0 0.0
2015-Jun-22 14:06N 48°50' W 122°43'0 0.0
2015-Jun-22 13:21N 48°50' W 122°43'0 0.0
2015-Jun-22 12:27N 48°50' W 122°43'0 0.0
2015-Jun-22 11:33N 48°50' W 122°43'0 0.0
2015-Jun-22 10:33N 48°50' W 122°43'0 0.0
2015-Jun-22 09:30N 48°50' W 122°43'0 0.0
2015-Jun-22 08:09N 48°50' W 122°43'0 0.0
2015-Jun-22 07:33N 48°50' W 122°43'0 0.0
2015-Jun-22 05:21N 48°50' W 122°43'0 0.0
2015-Jun-21 16:21N 48°50' W 122°43'0 0.0
2015-Jun-21 15:33N 48°50' W 122°43'0 0.0
2015-Jun-21 12:24N 48°50' W 122°43'0 0.0
2015-Jun-21 11:06N 48°50' W 122°43'0 0.0
2015-Jun-21 10:24N 48°50' W 122°43'0 0.0
2015-Jun-21 04:09N 48°50' W 122°43'0 0.0
2015-Jun-21 03:33N 48°50' W 122°43'0 0.0
2015-Jun-21 02:15N 48°50' W 122°43'0 0.0
2015-Jun-21 01:33N 48°50' W 122°43'0 0.0
2015-Jun-21 00:33N 48°50' W 122°43'0 0.0
2015-Jun-20 22:18N 48°50' W 122°43'0 0.0
2015-Jun-20 21:18N 48°50' W 122°43'0 0.0
2015-Jun-20 09:33N 48°50' W 122°43'  
Track history (hours):
 
Tides and Currents Weather Stations Pressure Air Temp Water Temp Dewpoint Dewpoint Depression Visibility Wind Speed Wind Dir Waves Ship Positions

Nrc Columbia

Owner: National Response Corporation, HOUSTON, TX. More information available from US FCC via Universal Licensing System and Coast Guard Vessel Documentation Center.

Last reported at 2015-Jun-30 01:20 UTC. Time now 2015-Jun-30 03:31 UTC.
Position N 48°50' W 122°43'.

Length 35 m.

Type: Pollution control. MMSI: 366710170.

Date/timePositionNaut miles runAvg speedWind from/ knotsBaromVisibWave heightAir tempDewpointWater temp
2015-Jun-30 01:20N 48°50' W 122°43'0 0.0
2015-Jun-29 23:17N 48°50' W 122°43'0 0.0
2015-Jun-29 22:11N 48°50' W 122°43'0 0.0
2015-Jun-29 19:32N 48°50' W 122°43'0 0.0
2015-Jun-29 16:32N 48°50' W 122°43'0 0.0
2015-Jun-29 15:32N 48°50' W 122°43'0 0.0
2015-Jun-29 14:26N 48°50' W 122°43'0 0.0
2015-Jun-29 12:26N 48°50' W 122°43'0 0.0
2015-Jun-29 11:32N 48°50' W 122°43'0 0.0
2015-Jun-29 08:32N 48°50' W 122°43'0 0.0
2015-Jun-29 02:26N 48°50' W 122°43'0 0.0
2015-Jun-28 23:26N 48°50' W 122°43'0 0.0
2015-Jun-28 22:20N 48°50' W 122°43'0 0.0
2015-Jun-28 21:32N 48°50' W 122°43'0 0.0
2015-Jun-28 15:14N 48°50' W 122°43'0 0.1
2015-Jun-28 14:32N 48°50' W 122°43'0 0.0
2015-Jun-28 13:26N 48°50' W 122°43'0 0.0
2015-Jun-28 11:32N 48°50' W 122°43'0 0.0
2015-Jun-28 08:17N 48°50' W 122°43'0 0.0
2015-Jun-28 07:29N 48°50' W 122°43'0 0.0
2015-Jun-28 06:05N 48°50' W 122°43'0 0.0
2015-Jun-28 05:17N 48°50' W 122°43'0 0.1
2015-Jun-28 04:32N 48°50' W 122°43'0 0.0
2015-Jun-28 03:26N 48°50' W 122°43'0 0.0
2015-Jun-28 02:14N 48°50' W 122°43'0 0.0
2015-Jun-28 00:32N 48°50' W 122°43'0 0.0
2015-Jun-27 22:32N 48°50' W 122°43'0 0.0
2015-Jun-27 19:14N 48°50' W 122°43'0 0.0
2015-Jun-27 17:29N 48°50' W 122°43'0 0.0
2015-Jun-27 16:26N 48°50' W 122°43'0 0.0
2015-Jun-27 15:32N 48°50' W 122°43'0 0.0
2015-Jun-27 11:14N 48°50' W 122°43'0 0.0
2015-Jun-27 10:32N 48°50' W 122°43'0 0.0
2015-Jun-27 08:32N 48°50' W 122°43'0 0.0
2015-Jun-27 07:32N 48°50' W 122°43'0 0.0
2015-Jun-27 06:26N 48°50' W 122°43'0 0.0
2015-Jun-27 05:29N 48°50' W 122°43'0 0.0
2015-Jun-27 04:32N 48°50' W 122°43'0 0.0
2015-Jun-27 03:29N 48°50' W 122°43'0 0.0
2015-Jun-27 02:32N 48°50' W 122°43'0 0.0
2015-Jun-27 01:34N 48°50' W 122°43'2 2.1
2015-Jun-27 00:33N 48°48' W 122°44'8 7.9
2015-Jun-26 23:33N 48°41' W 122°37'5 4.9
2015-Jun-26 22:33N 48°43' W 122°31'0 0.0
2015-Jun-26 21:24N 48°43' W 122°31'0 0.0
2015-Jun-26 20:33N 48°43' W 122°31'0 0.0
2015-Jun-26 19:33N 48°43' W 122°31'0 0.0
2015-Jun-26 18:24N 48°43' W 122°31'0 0.0
2015-Jun-26 17:15N 48°43' W 122°31'0 0.0
2015-Jun-26 16:33N 48°43' W 122°31'5 4.9
2015-Jun-26 15:33N 48°41' W 122°38'9 8.7
2015-Jun-26 14:29N 48°50' W 122°43'0 0.3
2015-Jun-26 13:33N 48°50' W 122°43'0 0.0
2015-Jun-26 12:32N 48°50' W 122°43'0 0.0
2015-Jun-26 11:33N 48°50' W 122°43'0 0.0
2015-Jun-26 10:28N 48°50' W 122°43'0 0.0
2015-Jun-26 09:33N 48°50' W 122°43'0 0.0
2015-Jun-26 08:33N 48°50' W 122°43'0 0.0
2015-Jun-26 07:33N 48°50' W 122°43'0 0.0
2015-Jun-26 06:33N 48°50' W 122°43'0 0.0
2015-Jun-26 05:33N 48°50' W 122°43'0 0.0
2015-Jun-26 04:32N 48°50' W 122°43'0 0.0
2015-Jun-26 03:32N 48°50' W 122°43'0 0.0
2015-Jun-26 02:33N 48°50' W 122°43'0 0.0
2015-Jun-26 01:25N 48°50' W 122°43'0 0.0
2015-Jun-26 00:30N 48°50' W 122°43'0 0.0
2015-Jun-25 23:33N 48°50' W 122°43'0 0.0
2015-Jun-25 22:33N 48°50' W 122°43'0 0.0
2015-Jun-25 21:33N 48°50' W 122°43'0 0.0
2015-Jun-25 20:33N 48°50' W 122°43'0 0.0
2015-Jun-25 19:31N 48°50' W 122°43'0 0.0
2015-Jun-25 18:33N 48°50' W 122°43'0 0.0
2015-Jun-25 17:33N 48°50' W 122°43'0 0.0
2015-Jun-25 16:33N 48°50' W 122°43'0 0.0
2015-Jun-25 15:33N 48°50' W 122°43'0 0.0
2015-Jun-25 14:33N 48°50' W 122°43'0 0.0
2015-Jun-25 13:33N 48°50' W 122°43'0 0.0
2015-Jun-25 12:32N 48°50' W 122°43'0 0.0
2015-Jun-25 11:33N 48°50' W 122°43'0 0.0
2015-Jun-25 10:33N 48°50' W 122°43'0 0.0
2015-Jun-25 09:33N 48°50' W 122°43'0 0.0
2015-Jun-25 08:33N 48°50' W 122°43'0 0.0
2015-Jun-25 07:33N 48°50' W 122°43'0 0.0
2015-Jun-25 06:32N 48°50' W 122°43'0 0.0
2015-Jun-25 05:33N 48°50' W 122°43'0 0.0
2015-Jun-25 04:33N 48°50' W 122°43'0 0.0
2015-Jun-25 03:33N 48°50' W 122°43'0 0.0
2015-Jun-25 02:33N 48°50' W 122°43'0 0.0
2015-Jun-25 01:33N 48°50' W 122°43'0 0.0
2015-Jun-25 00:32N 48°50' W 122°43'0 0.0
2015-Jun-24 23:27N 48°50' W 122°43'0 0.0
2015-Jun-24 22:33N 48°50' W 122°43'0 0.0
2015-Jun-24 21:33N 48°50' W 122°43'0 0.4
2015-Jun-24 20:32N 48°49' W 122°43'0 0.1
2015-Jun-24 19:33N 48°50' W 122°43'0 0.0
2015-Jun-24 18:31N 48°50' W 122°43'0 0.1
2015-Jun-24 17:33N 48°50' W 122°43'0 0.1
2015-Jun-24 15:27N 48°50' W 122°43'0 0.0
2015-Jun-24 14:27N 48°50' W 122°43'0 0.0
2015-Jun-24 13:33N 48°50' W 122°43'0 0.0
2015-Jun-24 12:24N 48°50' W 122°43'0 0.0
2015-Jun-24 11:18N 48°50' W 122°43'0 0.0
2015-Jun-24 10:30N 48°50' W 122°43'0 0.0
2015-Jun-24 09:27N 48°50' W 122°43'0 0.0
2015-Jun-24 08:30N 48°50' W 122°43'0 0.0
2015-Jun-24 07:33N 48°50' W 122°43'0 0.0
2015-Jun-24 06:33N 48°50' W 122°43'0 0.0
2015-Jun-24 05:21N 48°50' W 122°43'0 0.0
2015-Jun-24 04:21N 48°50' W 122°43'0 0.0
2015-Jun-24 03:33N 48°50' W 122°43'0 0.0
2015-Jun-24 02:09N 48°50' W 122°43'0 0.0
2015-Jun-24 01:33N 48°50' W 122°43'0 0.0
2015-Jun-24 00:33N 48°50' W 122°43'0 0.0
2015-Jun-23 22:33N 48°50' W 122°43'0 0.0
2015-Jun-23 21:06N 48°50' W 122°43'0 0.0
2015-Jun-23 20:06N 48°50' W 122°43'0 0.0
2015-Jun-22 14:06N 48°50' W 122°43'0 0.0
2015-Jun-22 13:21N 48°50' W 122°43'0 0.0
2015-Jun-22 12:27N 48°50' W 122°43'0 0.0
2015-Jun-22 11:33N 48°50' W 122°43'0 0.0
2015-Jun-22 10:33N 48°50' W 122°43'0 0.0
2015-Jun-22 09:30N 48°50' W 122°43'0 0.0
2015-Jun-22 08:09N 48°50' W 122°43'0 0.0
2015-Jun-22 07:33N 48°50' W 122°43'0 0.0
2015-Jun-22 05:21N 48°50' W 122°43'0 0.0
2015-Jun-21 16:21N 48°50' W 122°43'0 0.0
2015-Jun-21 15:33N 48°50' W 122°43'0 0.0
2015-Jun-21 12:24N 48°50' W 122°43'0 0.0
2015-Jun-21 11:06N 48°50' W 122°43'0 0.0
2015-Jun-21 10:24N 48°50' W 122°43'0 0.0
2015-Jun-21 04:09N 48°50' W 122°43'0 0.0
2015-Jun-21 03:33N 48°50' W 122°43'0 0.0
2015-Jun-21 02:15N 48°50' W 122°43'0 0.0
2015-Jun-21 01:33N 48°50' W 122°43'0 0.0
2015-Jun-21 00:33N 48°50' W 122°43'0 0.0
2015-Jun-20 22:18N 48°50' W 122°43'0 0.0
2015-Jun-20 21:18N 48°50' W 122°43'0 0.0
2015-Jun-20 09:33N 48°50' W 122°43'  

Dump ship's entire track history